Terminal Aerodrome Forecast
Issued by NWS

Home | Current Version | Previous Version | Text Only | Print | Product List | Glossary On
Versions: 1 2 3 4 5 6 7 8 9 10 11 12 13
000
FTUS43 KIWX 221100
TAFSBN
TAF
KSBN 221120Z 2212/2312 20007KT P6SM SKC
     FM221500 20014KT P6SM SCT250
     FM230000 22007KT P6SM SCT050 BKN250 PROB30 2302/2308 5SM TSRA
      BKN050CB
     FM230800 34012KT P6SM BKN020=

USA.gov is the U.S. government's official web portal to all federal, state and local government web resources and services.